KCVO - Corvallis, OR
Updated: Fri, 23-Jun-2017 4:35pm PDT
Clear
Clear
 Wind from NNE
Wind: NNE 7 mph , 11 km/h
Temperature: 93°F , 34°C
Dew Point: 46°F , 8°C
Humidity: 20%
Barometer: 30.02 inHg , 1016.6 hPa
Clouds: Clear
Visibility: 10 miles , 16 km
2017/06/23 23:35 KCVO 232335Z 02006KT 10SM CLR 34/08 A3002 RMK AO1